Time;durP1;ratioP1;P1;durP2;ratioP2;P2;SDS_P1;SDS_P2;PMS_P1;PMS_P2;Temp;Humidity;BMP_temperature;BMP_pressure;BME280_temperature;BME280_humidity;BME280_pressure;Samples;Min_cycle;Max_cycle;Signal;HPM_P1;HPM_P2
2023/01/13 00:02:11;;;;;;;;;;;;;;;20.92;33.72;101537.98;105750;1284;61285;-83
2023/01/13 00:04:37;;;;;;;;;;;;;;;20.92;33.63;101535.29;105906;1284;61304;-83
2023/01/13 00:07:03;;;;;;;;;;;;;;;20.92;33.63;101536.54;106004;1286;61234;-82
2023/01/13 00:09:28;;;;;;;;;;;;;;;20.92;33.79;101541.90;105999;1291;61342;-83
2023/01/13 00:11:55;;;;;;;;;;;;;;;20.93;33.59;101547.63;106012;1284;61154;-84
2023/01/13 00:14:20;;;;;;;;;;;;;;;20.93;33.68;101542.41;105959;1285;61263;-83
2023/01/13 00:16:46;;;;;;;;;;;;;;;20.93;33.70;101543.52;105930;1286;61764;-83
2023/01/13 00:19:11;;;;;;;;;;;;;;;20.93;33.78;101547.43;105931;1286;62858;-83
2023/01/13 00:21:38;;;;;;;;;;;;;;;20.93;33.68;101549.00;106021;1286;61375;-83
2023/01/13 00:24:04;;;;;;;;;;;;;;;20.93;33.82;101551.01;106025;1286;61258;-83
2023/01/13 00:26:32;;;;;;;;;;;;;;;20.93;33.70;101551.16;105917;1286;61455;-83
2023/01/13 00:28:58;;;;;;;;;;;;;;;20.94;33.79;101549.19;105978;1284;61241;-83
2023/01/13 00:31:24;;;;;;;;;;;;;;;20.94;33.74;101550.05;106049;1286;60085;-83
2023/01/13 00:33:49;;;;;;;;;;;;;;;20.94;33.65;101551.48;106108;1285;59967;-82
2023/01/13 00:36:16;;;;;;;;;;;;;;;20.95;33.81;101552.89;106034;1286;61278;-82
2023/01/13 00:38:42;;;;;;;;;;;;;;;20.94;33.66;101558.27;105971;1286;61298;-82
2023/01/13 00:41:09;;;;;;;;;;;;;;;20.95;33.68;101554.69;105969;1286;60181;-82
2023/01/13 00:43:35;;;;;;;;;;;;;;;20.94;33.80;101559.35;106003;1285;61244;-83
2023/01/13 00:46:00;;;;;;;;;;;;;;;20.94;33.82;101558.45;105900;1286;60067;-83
2023/01/13 00:48:26;;;;;;;;;;;;;;;20.95;33.68;101560.20;105959;1284;59278;-84
2023/01/13 00:50:59;;;;;;;;;;;;;;;20.95;33.67;101553.39;105916;1286;61242;-83
2023/01/13 00:53:24;;;;;;;;;;;;;;;20.95;33.73;101550.36;105961;1284;61228;-83
2023/01/13 00:55:57;;;;;;;;;;;;;;;20.95;33.70;101548.73;105997;1285;61285;-83
2023/01/13 00:58:23;;;;;;;;;;;;;;;20.95;33.63;101544.08;105943;1286;73527;-83
2023/01/13 01:00:49;;;;;;;;;;;;;;;20.96;33.70;101541.94;105916;1286;61282;-83
2023/01/13 01:03:15;;;;;;;;;;;;;;;20.95;33.69;101538.38;105986;1285;61204;-83
2023/01/13 01:05:42;;;;;;;;;;;;;;;20.95;33.68;101537.85;105976;1286;61268;-83
2023/01/13 01:08:07;;;;;;;;;;;;;;;20.95;33.61;101538.02;105916;1286;61327;-83
2023/01/13 01:10:33;;;;;;;;;;;;;;;20.96;33.54;101535.27;105935;1286;61206;-83
2023/01/13 01:12:59;;;;;;;;;;;;;;;20.96;33.62;101532.27;105955;1286;61288;-83
2023/01/13 01:15:25;;;;;;;;;;;;;;;20.96;33.65;101531.91;105981;1285;59969;-83
2023/01/13 01:18:14;;;;;;;;;;;;;;;20.96;33.77;101527.43;106006;1286;61282;-83
2023/01/13 01:20:40;;;;;;;;;;;;;;;20.96;33.58;101523.27;105193;1291;72332;-83
2023/01/13 01:23:06;;;;;;;;;;;;;;;20.96;33.59;101522.05;105199;1291;61375;-83
2023/01/13 01:25:32;;;;;;;;;;;;;;;20.97;33.64;101522.36;105189;1292;61433;-83
2023/01/13 01:27:57;;;;;;;;;;;;;;;20.96;33.52;101518.44;105192;1291;61466;-83
2023/01/13 01:30:23;;;;;;;;;;;;;;;20.97;33.56;101517.89;105303;1292;61439;-83
2023/01/13 01:32:48;;;;;;;;;;;;;;;20.96;33.60;101515.77;105239;1291;60134;-83
2023/01/13 01:35:14;;;;;;;;;;;;;;;20.96;33.73;101514.87;105300;1291;74548;-83
2023/01/13 01:37:39;;;;;;;;;;;;;;;20.97;33.61;101512.69;105333;1291;61548;-83
2023/01/13 01:40:05;;;;;;;;;;;;;;;20.97;33.59;101517.83;105224;1291;61243;-83
2023/01/13 01:45:18;;;;;;;;;;;;;;;20.98;33.54;101512.64;105217;1291;73892;-83
2023/01/13 01:47:45;;;;;;;;;;;;;;;20.97;33.53;101511.23;105198;1291;61168;-83
2023/01/13 01:50:10;;;;;;;;;;;;;;;20.97;33.63;101510.89;105242;1291;61375;-83
2023/01/13 01:52:39;;;;;;;;;;;;;;;20.97;33.58;101513.55;105182;1291;61248;-83
2023/01/13 01:55:15;;;;;;;;;;;;;;;20.97;33.61;101512.28;105283;1291;75239;-84
2023/01/13 01:57:42;;;;;;;;;;;;;;;20.97;33.70;101511.74;105373;1286;61250;-83
2023/01/13 02:00:08;;;;;;;;;;;;;;;20.97;33.82;101511.39;105924;1285;61286;-82
2023/01/13 02:02:33;;;;;;;;;;;;;;;20.98;33.70;101513.14;105980;1285;61352;-83
2023/01/13 02:04:59;;;;;;;;;;;;;;;20.98;33.66;101508.13;105907;1285;61263;-83
2023/01/13 02:07:25;;;;;;;;;;;;;;;20.97;33.76;101507.09;105946;1284;61314;-83
2023/01/13 02:09:53;;;;;;;;;;;;;;;20.98;33.66;101504.38;105944;1286;61326;-83
2023/01/13 02:12:33;;;;;;;;;;;;;;;20.98;33.63;101504.02;105967;1286;61279;-83
2023/01/13 02:15:04;;;;;;;;;;;;;;;20.98;33.57;101506.33;105931;1284;75525;-83
2023/01/13 02:17:50;;;;;;;;;;;;;;;20.98;33.64;101507.23;105535;1289;61384;-83
2023/01/13 02:20:31;;;;;;;;;;;;;;;20.98;33.54;101507.04;105496;1289;61177;-83
2023/01/13 02:23:02;;;;;;;;;;;;;;;20.98;33.61;101509.00;105594;1288;72672;-83
2023/01/13 02:25:47;;;;;;;;;;;;;;;20.98;33.61;101503.64;105571;1289;75608;-84
2023/01/13 02:28:15;;;;;;;;;;;;;;;20.98;33.65;101507.77;105577;1288;61422;-83
2023/01/13 02:33:28;;;;;;;;;;;;;;;20.99;33.66;101499.69;105556;1288;72570;-83
2023/01/13 02:35:57;;;;;;;;;;;;;;;20.99;33.65;101500.58;105565;1294;73676;-83
2023/01/13 02:38:24;;;;;;;;;;;;;;;20.98;33.54;101497.19;105574;1288;61135;-83
2023/01/13 02:40:55;;;;;;;;;;;;;;;20.99;33.58;101496.44;105461;1288;61283;-83
2023/01/13 02:46:14;;;;;;;;;;;;;;;20.99;33.50;101497.33;105550;1288;74553;-83
2023/01/13 02:48:40;;;;;;;;;;;;;;;20.99;33.61;101497.33;105724;1286;61353;-83
2023/01/13 02:51:11;;;;;;;;;;;;;;;20.99;33.57;101495.91;105999;1286;61266;-83
2023/01/13 02:54:00;;;;;;;;;;;;;;;20.99;33.71;101497.86;105965;1285;72407;-83
2023/01/13 02:56:25;;;;;;;;;;;;;;;20.99;33.68;101492.87;105303;1291;75409;-82
2023/01/13 02:58:51;;;;;;;;;;;;;;;20.99;33.59;101490.18;105211;1291;61371;-83
2023/01/13 03:01:16;;;;;;;;;;;;;;;20.99;33.73;101490.35;105265;1291;62924;-83
2023/01/13 03:03:43;;;;;;;;;;;;;;;21.00;33.54;101486.90;105416;1291;61429;-83
2023/01/13 03:06:20;;;;;;;;;;;;;;;21.00;33.64;101488.71;105206;1291;61299;-83
2023/01/13 03:08:48;;;;;;;;;;;;;;;21.01;33.60;101489.90;105198;1291;61309;-83
2023/01/13 03:11:15;;;;;;;;;;;;;;;21.01;33.69;101495.61;105295;1291;61231;-83
2023/01/13 03:13:41;;;;;;;;;;;;;;;21.01;33.65;101498.47;105198;1292;71277;-83
2023/01/13 03:16:37;;;;;;;;;;;;;;;21.01;33.66;101498.84;105339;1291;61138;-82
2023/01/13 03:19:09;;;;;;;;;;;;;;;21.01;33.73;101497.38;104842;1299;61264;-82
2023/01/13 03:21:35;;;;;;;;;;;;;;;21.01;33.58;101495.61;104855;1298;61451;-83
2023/01/13 03:24:14;;;;;;;;;;;;;;;21.01;33.78;101496.85;104818;1301;61293;-83
2023/01/13 03:26:51;;;;;;;;;;;;;;;21.02;33.69;101500.96;104811;1300;74520;-83
2023/01/13 03:29:23;;;;;;;;;;;;;;;21.02;33.55;101504.86;104811;1300;61153;-83
2023/01/13 03:32:09;;;;;;;;;;;;;;;21.02;33.71;101506.14;104736;1301;61313;-83
2023/01/13 03:34:37;;;;;;;;;;;;;;;21.02;33.65;101506.84;105276;1292;73530;-83
2023/01/13 03:37:04;;;;;;;;;;;;;;;21.02;33.46;101505.96;105366;1292;75631;-83
2023/01/13 03:39:54;;;;;;;;;;;;;;;21.02;33.56;101508.60;105396;1292;61253;-82
2023/01/13 03:42:21;;;;;;;;;;;;;;;21.02;33.58;101506.48;104853;1297;61254;-83
2023/01/13 03:45:07;;;;;;;;;;;;;;;21.02;33.65;101516.66;104815;1297;72874;-83
2023/01/13 03:47:35;;;;;;;;;;;;;;;21.02;33.66;101517.17;104852;1297;74697;-83
2023/01/13 03:50:02;;;;;;;;;;;;;;;21.03;33.76;101516.08;104818;1297;61211;-83
2023/01/13 03:52:29;;;;;;;;;;;;;;;21.03;33.57;101517.33;104849;1297;61200;-83
2023/01/13 03:54:57;;;;;;;;;;;;;;;21.03;33.58;101516.41;104892;1291;72486;-83
2023/01/13 03:57:25;;;;;;;;;;;;;;;21.03;33.67;101516.06;105303;1291;75721;-83
2023/01/13 03:59:51;;;;;;;;;;;;;;;21.03;33.66;101516.08;105309;1292;61263;-83
2023/01/13 04:02:36;;;;;;;;;;;;;;;21.02;33.63;101514.31;105277;1291;61307;-83
2023/01/13 04:05:05;;;;;;;;;;;;;;;21.03;33.53;101516.98;105205;1292;73544;-83
2023/01/13 04:07:37;;;;;;;;;;;;;;;21.03;33.68;101516.98;105296;1291;74263;-83
2023/01/13 04:10:04;;;;;;;;;;;;;;;21.03;33.58;101519.65;105320;1291;61189;-83
2023/01/13 04:13:02;;;;;;;;;;;;;;;21.03;33.76;101516.95;105265;1291;61388;-83
2023/01/13 04:15:30;;;;;;;;;;;;;;;21.04;33.69;101519.96;105263;1291;72682;-82
2023/01/13 04:18:22;;;;;;;;;;;;;;;21.03;33.69;101518.38;105308;1294;74454;-83
2023/01/13 04:20:48;;;;;;;;;;;;;;;21.03;33.60;101512.66;105829;1285;60105;-83
2023/01/13 04:23:13;;;;;;;;;;;;;;;21.03;33.67;101511.98;105898;1285;61262;-83
2023/01/13 04:25:49;;;;;;;;;;;;;;;21.03;33.61;101516.23;105976;1288;61285;-83
2023/01/13 04:28:16;;;;;;;;;;;;;;;21.04;33.57;101515.65;105953;1286;75987;-83
2023/01/13 04:30:41;;;;;;;;;;;;;;;21.03;33.60;101520.16;105991;1288;61152;-83
2023/01/13 04:33:07;;;;;;;;;;;;;;;21.03;33.47;101520.53;105987;1286;61297;-83
2023/01/13 04:35:33;;;;;;;;;;;;;;;21.03;33.53;101522.85;105950;1286;61143;-84
2023/01/13 04:38:01;;;;;;;;;;;;;;;21.02;33.53;101525.59;105990;1288;61289;-83
2023/01/13 04:40:27;;;;;;;;;;;;;;;21.02;33.35;101527.05;105972;1286;61176;-83
2023/01/13 04:42:53;;;;;;;;;;;;;;;21.02;33.43;101524.76;105938;1286;61231;-83
2023/01/13 04:45:18;;;;;;;;;;;;;;;21.00;33.16;101522.67;105890;1291;61235;-83
2023/01/13 04:47:44;;;;;;;;;;;;;;;21.00;33.19;101523.05;105944;1286;61304;-83
2023/01/13 04:50:10;;;;;;;;;;;;;;;20.99;33.27;101525.94;105983;1290;60149;-83
2023/01/13 04:52:37;;;;;;;;;;;;;;;21.00;33.09;101531.46;105945;1286;61171;-83
2023/01/13 04:55:02;;;;;;;;;;;;;;;21.01;33.12;101532.31;105929;1285;61690;-83
2023/01/13 04:57:28;;;;;;;;;;;;;;;21.01;32.98;101535.52;105978;1286;61375;-84
2023/01/13 04:59:53;;;;;;;;;;;;;;;21.01;33.10;101535.50;105935;1286;61428;-84
2023/01/13 05:02:19;;;;;;;;;;;;;;;21.02;33.11;101533.48;105912;1286;61275;-84
2023/01/13 05:04:46;;;;;;;;;;;;;;;21.02;33.24;101533.15;105978;1286;61372;-84
2023/01/13 05:07:11;;;;;;;;;;;;;;;21.02;33.06;101534.38;105949;1285;61087;-83
2023/01/13 05:09:37;;;;;;;;;;;;;;;21.02;33.14;101534.36;105884;1290;60072;-83
2023/01/13 05:17:31;;;;;;;;;;;;;;;21.03;33.00;101525.71;105968;1286;61186;-84
2023/01/13 05:19:57;;;;;;;;;;;;;;;21.03;32.99;101523.56;105954;1286;61282;-83
2023/01/13 05:25:20;;;;;;;;;;;;;;;21.02;33.21;101528.66;105995;1285;61285;-84
2023/01/13 05:27:47;;;;;;;;;;;;;;;20.98;33.21;101527.64;105955;1286;61321;-84
2023/01/13 05:30:13;;;;;;;;;;;;;;;20.93;32.95;101526.46;105970;1286;72501;-84
2023/01/13 05:32:40;;;;;;;;;;;;;;;20.88;33.19;101524.50;106181;1286;61284;-84
2023/01/13 05:35:08;;;;;;;;;;;;;;;20.82;33.33;101522.29;106065;1286;61245;-84
2023/01/13 05:37:33;;;;;;;;;;;;;;;20.78;33.47;101523.09;106158;1285;61247;-84
2023/01/13 05:45:28;;;;;;;;;;;;;;;20.64;33.52;101525.61;106193;1284;61346;-84
2023/01/13 05:47:55;;;;;;;;;;;;;;;20.62;33.68;101528.61;106073;1286;61263;-84
2023/01/13 05:50:20;;;;;;;;;;;;;;;20.59;33.66;101532.36;106148;1286;59946;-83
2023/01/13 05:52:50;;;;;;;;;;;;;;;20.56;33.72;101534.52;106130;1286;61298;-84
2023/01/13 05:55:15;;;;;;;;;;;;;;;20.52;33.65;101534.39;106163;1285;60043;-84
2023/01/13 05:57:42;;;;;;;;;;;;;;;20.48;33.83;101535.17;106228;1285;61251;-85
2023/01/13 06:00:08;;;;;;;;;;;;;;;20.44;33.64;101539.67;106212;1286;61262;-84
2023/01/13 06:02:33;;;;;;;;;;;;;;;20.40;33.68;101543.65;106165;1285;59358;-84
2023/01/13 06:04:59;;;;;;;;;;;;;;;20.36;33.86;101544.94;106135;1286;61031;-83
2023/01/13 06:07:25;;;;;;;;;;;;;;;20.33;33.69;101550.65;106074;1289;59457;-85
2023/01/13 06:09:51;;;;;;;;;;;;;;;20.31;33.72;101551.64;106144;1285;61027;-82
2023/01/13 06:12:16;;;;;;;;;;;;;;;20.31;33.64;101552.04;106199;1290;60428;-83
2023/01/13 06:14:42;;;;;;;;;;;;;;;20.31;33.72;101557.58;105962;1285;59982;-82
2023/01/13 06:17:09;;;;;;;;;;;;;;;20.32;33.75;101558.06;106169;1286;59946;-83
2023/01/13 06:19:36;;;;;;;;;;;;;;;20.32;33.67;101557.14;106260;1285;61256;-83
2023/01/13 06:22:21;;;;;;;;;;;;;;;20.33;33.66;101559.21;106162;1287;61292;-82
2023/01/13 06:24:50;;;;;;;;;;;;;;;20.38;33.78;101569.52;106175;1288;74850;-83
2023/01/13 06:27:16;;;;;;;;;;;;;;;20.41;33.58;101566.83;106132;1286;60256;-83
2023/01/13 06:29:41;;;;;;;;;;;;;;;20.46;33.56;101563.70;106197;1287;62263;-83
2023/01/13 06:32:33;;;;;;;;;;;;;;;20.50;33.55;101566.33;106194;1286;60116;-83
2023/01/13 06:35:03;;;;;;;;;;;;;;;20.57;33.42;101568.98;106151;1288;74425;-83
2023/01/13 06:37:28;;;;;;;;;;;;;;;20.61;33.51;101569.46;106113;1285;60886;-83
2023/01/13 06:39:56;;;;;;;;;;;;;;;20.65;33.40;101571.05;106227;1286;61359;-83
2023/01/13 06:45:06;;;;;;;;;;;;;;;20.72;33.32;101574.06;105774;1289;75108;-83
2023/01/13 06:47:32;;;;;;;;;;;;;;;20.74;33.25;101571.41;106085;1285;61088;-85
2023/01/13 06:49:58;;;;;;;;;;;;;;;20.77;33.35;101574.66;106106;1286;60420;-85
2023/01/13 06:52:26;;;;;;;;;;;;;;;20.80;33.26;101573.45;105927;1287;59198;-83
2023/01/13 06:54:51;;;;;;;;;;;;;;;20.82;33.26;101578.67;106515;1288;59822;-84
2023/01/13 06:57:18;;;;;;;;;;;;;;;20.78;33.38;101576.40;106167;1288;59355;-85
2023/01/13 06:59:46;;;;;;;;;;;;;;;20.73;33.51;101573.42;106171;1286;61321;-84
2023/01/13 07:02:12;;;;;;;;;;;;;;;20.70;33.61;101576.67;106174;1286;60031;-84
2023/01/13 07:04:37;;;;;;;;;;;;;;;20.66;33.78;101578.83;106035;1288;61346;-85
2023/01/13 07:07:03;;;;;;;;;;;;;;;20.62;33.74;101586.20;106149;1286;62498;-85
2023/01/13 07:09:28;;;;;;;;;;;;;;;20.59;33.60;101587.30;106200;1290;59470;-82
2023/01/13 07:11:54;;;;;;;;;;;;;;;20.56;33.61;101581.02;106263;1286;61210;-82
2023/01/13 07:17:05;;;;;;;;;;;;;;;20.54;33.52;101586.49;106197;1284;75462;-83
2023/01/13 07:19:30;;;;;;;;;;;;;;;20.53;33.51;101591.52;106251;1285;59257;-83
2023/01/13 07:21:58;;;;;;;;;;;;;;;20.53;33.49;101589.95;106065;1289;61310;-83
2023/01/13 07:24:24;;;;;;;;;;;;;;;20.52;33.57;101589.64;106071;1289;72580;-84
2023/01/13 07:26:49;;;;;;;;;;;;;;;20.52;33.47;101590.34;106189;1286;59356;-83
2023/01/13 07:29:15;;;;;;;;;;;;;;;20.52;33.43;101593.55;106260;1284;60190;-84
2023/01/13 07:31:43;;;;;;;;;;;;;;;20.51;33.39;101597.36;106115;1285;61295;-82
2023/01/13 07:34:08;;;;;;;;;;;;;;;20.51;33.24;101596.66;106046;1286;61394;-83
2023/01/13 07:36:34;;;;;;;;;;;;;;;20.51;33.31;101595.08;106079;1285;61308;-83
2023/01/13 07:38:59;;;;;;;;;;;;;;;20.52;33.33;101593.23;106274;1285;61156;-83
2023/01/13 07:44:09;;;;;;;;;;;;;;;20.58;33.36;101588.71;106160;1285;61173;-83
2023/01/13 07:46:35;;;;;;;;;;;;;;;20.63;33.38;101582.05;106103;1286;60354;-83
2023/01/13 07:49:02;;;;;;;;;;;;;;;20.67;33.33;101581.45;106387;1285;61217;-83
2023/01/13 07:51:28;;;;;;;;;;;;;;;20.71;33.32;101589.66;105971;1286;59781;-84
2023/01/13 07:53:53;;;;;;;;;;;;;;;20.73;33.30;101592.61;106018;1284;62872;-84
2023/01/13 07:56:19;;;;;;;;;;;;;;;20.71;33.17;101596.65;106121;1286;59407;-84
2023/01/13 07:58:49;;;;;;;;;;;;;;;20.67;33.30;101593.13;106158;1286;59956;-83
2023/01/13 08:01:15;;;;;;;;;;;;;;;20.63;33.54;101599.40;106290;1285;75638;-83
2023/01/13 08:03:42;;;;;;;;;;;;;;;20.60;33.64;101597.22;106174;1286;61020;-84
2023/01/13 08:06:09;;;;;;;;;;;;;;;20.57;33.56;101596.33;106078;1286;60261;-84
2023/01/13 08:08:34;;;;;;;;;;;;;;;20.56;33.64;101592.09;106194;1286;72541;-84
2023/01/13 08:11:00;;;;;;;;;;;;;;;20.55;33.73;101594.66;106099;1284;60135;-84
2023/01/13 08:13:27;;;;;;;;;;;;;;;20.51;33.73;101599.90;106207;1286;59912;-84
2023/01/13 08:15:53;;;;;;;;;;;;;;;20.45;33.70;101598.26;106040;1286;60241;-84
2023/01/13 08:18:19;;;;;;;;;;;;;;;20.43;33.69;101600.68;105880;1286;61320;-84
2023/01/13 08:20:47;;;;;;;;;;;;;;;20.44;33.90;101601.34;106073;1286;60242;-83
2023/01/13 08:23:13;;;;;;;;;;;;;;;20.48;33.77;101601.34;106743;1286;59043;-82
2023/01/13 08:25:39;;;;;;;;;;;;;;;20.52;33.76;101598.23;106288;1286;59372;-83
2023/01/13 08:28:04;;;;;;;;;;;;;;;20.57;33.67;101597.20;105449;1286;834861;-82
2023/01/13 08:30:30;;;;;;;;;;;;;;;20.62;33.64;101598.01;106130;1286;61177;-82
2023/01/13 08:32:56;;;;;;;;;;;;;;;20.67;33.62;101594.88;106257;1285;59398;-82
2023/01/13 08:35:21;;;;;;;;;;;;;;;20.72;33.78;101591.93;106117;1286;59990;-82
2023/01/13 08:37:47;;;;;;;;;;;;;;;20.76;33.73;101592.95;106194;1286;61124;-82
2023/01/13 08:40:12;;;;;;;;;;;;;;;20.80;33.65;101596.85;106169;1286;61260;-82
2023/01/13 08:42:38;;;;;;;;;;;;;;;20.86;33.87;101594.01;106177;1286;62005;-82
2023/01/13 08:45:04;;;;;;;;;;;;;;;20.90;33.86;101592.33;106220;1285;61268;-82
2023/01/13 08:47:32;;;;;;;;;;;;;;;20.92;33.80;101594.50;106106;1286;61220;-82
2023/01/13 08:49:58;;;;;;;;;;;;;;;20.96;33.85;101593.78;106209;1285;61209;-82
2023/01/13 08:52:24;;;;;;;;;;;;;;;20.98;33.93;101597.77;106212;1286;72672;-82
2023/01/13 08:54:50;;;;;;;;;;;;;;;21.00;33.71;101593.21;106125;1286;59761;-83
2023/01/13 08:57:18;;;;;;;;;;;;;;;21.01;33.99;101594.02;106066;1285;61745;-82
2023/01/13 08:59:43;;;;;;;;;;;;;;;21.02;34.03;101596.14;106283;1285;59228;-83
2023/01/13 09:02:13;;;;;;;;;;;;;;;21.03;34.06;101593.21;106013;1286;59783;-84
2023/01/13 09:04:38;;;;;;;;;;;;;;;21.02;34.06;101591.29;106392;1286;75467;-84
2023/01/13 09:07:04;;;;;;;;;;;;;;;20.95;34.06;101591.16;106547;1285;59549;-84
2023/01/13 09:09:30;;;;;;;;;;;;;;;20.85;34.07;101590.09;106620;1286;59944;-84
2023/01/13 09:14:43;;;;;;;;;;;;;;;20.71;34.18;101589.11;106549;1286;74481;-84
2023/01/13 09:17:08;;;;;;;;;;;;;;;20.67;34.37;101595.23;106662;1285;59853;-83
2023/01/13 09:19:34;;;;;;;;;;;;;;;20.65;34.64;101591.43;106518;1286;59381;-83
2023/01/13 09:21:59;;;;;;;;;;;;;;;20.64;34.60;101597.38;106632;1286;59703;-83
2023/01/13 09:24:25;;;;;;;;;;;;;;;20.62;34.71;101594.09;106527;1286;59103;-84
2023/01/13 09:26:51;;;;;;;;;;;;;;;20.61;34.69;101591.08;106736;1286;59401;-83
2023/01/13 09:29:16;;;;;;;;;;;;;;;20.60;34.75;101583.98;106309;1285;60005;-83
2023/01/13 09:31:42;;;;;;;;;;;;;;;20.59;34.61;101579.23;106084;1285;61447;-84
2023/01/13 09:36:54;;;;;;;;;;;;;;;20.57;34.88;101571.79;106139;1284;74379;-84
2023/01/13 09:39:21;;;;;;;;;;;;;;;20.57;34.80;101570.39;106296;1285;59981;-84
2023/01/13 09:44:31;;;;;;;;;;;;;;;20.52;34.66;101560.11;106156;1286;72323;-83
2023/01/13 09:46:58;;;;;;;;;;;;;;;20.51;34.83;101562.31;106193;1285;59477;-84
2023/01/13 09:49:32;;;;;;;;;;;;;;;20.51;34.72;101560.52;106146;1286;59737;-83
2023/01/13 09:52:01;;;;;;;;;;;;;;;20.55;34.67;101563.15;106147;1285;61051;-84
2023/01/13 09:54:31;;;;;;;;;;;;;;;20.59;34.88;101563.81;106158;1287;73029;-83
2023/01/13 09:56:57;;;;;;;;;;;;;;;20.62;34.89;101563.67;105932;1285;74418;-84
2023/01/13 09:59:25;;;;;;;;;;;;;;;20.64;34.77;101562.34;106243;1286;60053;-84
2023/01/13 10:02:14;;;;;;;;;;;;;;;20.63;34.87;101562.90;106179;1285;60309;-84
2023/01/13 10:04:39;;;;;;;;;;;;;;;20.60;34.82;101561.85;105708;1286;73405;-84
2023/01/13 10:07:05;;;;;;;;;;;;;;;20.45;34.69;101550.35;105958;1284;59725;-85
2023/01/13 10:09:37;;;;;;;;;;;;;;;20.22;34.92;101553.59;106426;1288;59273;-86
2023/01/13 10:14:53;;;;;;;;;;;;;;;20.05;35.31;101548.97;106531;1286;72580;-84
2023/01/13 10:17:40;;;;;;;;;;;;;;;20.05;35.23;101545.56;105980;1288;74543;-83
2023/01/13 10:20:12;;;;;;;;;;;;;;;20.07;35.50;101544.39;106148;1285;59951;-83
2023/01/13 10:22:41;;;;;;;;;;;;;;;20.13;35.49;101538.17;106253;1285;61086;-83
2023/01/13 10:25:08;;;;;;;;;;;;;;;20.19;35.56;101534.80;106217;1285;73561;-84
2023/01/13 10:27:35;;;;;;;;;;;;;;;20.27;35.62;101531.33;106207;1288;75457;-83
2023/01/13 10:30:13;;;;;;;;;;;;;;;20.35;35.53;101527.86;106166;1285;61279;-85
2023/01/13 10:32:41;;;;;;;;;;;;;;;20.40;35.56;101531.10;106232;1286;61041;-84
2023/01/13 10:35:08;;;;;;;;;;;;;;;20.40;35.60;101530.56;106134;1286;72627;-86
2023/01/13 10:37:37;;;;;;;;;;;;;;;20.42;35.55;101525.64;106334;1285;74298;-83
2023/01/13 10:40:03;;;;;;;;;;;;;;;20.43;35.68;101523.98;106179;1285;61093;-84
2023/01/13 10:42:28;;;;;;;;;;;;;;;20.41;35.69;101521.92;106046;1286;59868;-84
2023/01/13 10:45:00;;;;;;;;;;;;;;;20.39;35.70;101523.66;106107;1286;61325;-84
2023/01/13 10:47:33;;;;;;;;;;;;;;;20.39;35.74;101520.27;106246;1286;75704;-84
2023/01/13 10:49:59;;;;;;;;;;;;;;;20.37;35.74;101519.29;106128;1285;60740;-85
2023/01/13 10:52:26;;;;;;;;;;;;;;;20.35;35.65;101516.05;106249;1285;59844;-83
2023/01/13 10:54:52;;;;;;;;;;;;;;;20.32;35.60;101513.16;106088;1286;73651;-83
2023/01/13 10:57:22;;;;;;;;;;;;;;;20.29;35.71;101509.21;106061;1286;59901;-84
2023/01/13 10:59:47;;;;;;;;;;;;;;;20.28;35.50;101504.83;106101;1285;62005;-83
2023/01/13 11:02:25;;;;;;;;;;;;;;;20.28;35.45;101499.12;106115;1288;60504;-83
2023/01/13 11:04:54;;;;;;;;;;;;;;;20.28;35.47;101497.88;106168;1285;72924;-84
2023/01/13 11:07:23;;;;;;;;;;;;;;;20.26;35.30;101497.41;106150;1285;75513;-82
2023/01/13 11:09:59;;;;;;;;;;;;;;;20.18;35.63;101493.23;106556;1286;59768;-83
2023/01/13 11:12:32;;;;;;;;;;;;;;;20.13;35.40;101493.30;106569;1284;59979;-82
2023/01/13 11:14:59;;;;;;;;;;;;;;;20.11;35.65;101490.59;106614;1286;73710;-83
2023/01/13 11:17:46;;;;;;;;;;;;;;;20.06;35.78;101488.86;106576;1284;59188;-83
2023/01/13 11:20:13;;;;;;;;;;;;;;;19.98;35.65;101495.41;106264;1285;60869;-83
2023/01/13 11:22:41;;;;;;;;;;;;;;;19.95;35.52;101489.33;106269;1285;59657;-83
2023/01/13 11:25:42;;;;;;;;;;;;;;;;;;;;;
2023/01/13 11:28:50;;;;;;;;;;;;;;;19.87;35.54;101485.47;106411;1285;74563;-83
2023/01/13 11:31:21;;;;;;;;;;;;;;;19.88;35.56;101483.25;105422;1291;59758;-83
2023/01/13 11:33:49;;;;;;;;;;;;;;;19.92;35.53;101480.58;105430;1291;60388;-84
2023/01/13 11:36:30;;;;;;;;;;;;;;;19.93;35.36;101477.28;105416;1291;72554;-84
2023/01/13 11:38:57;;;;;;;;;;;;;;;19.94;35.40;101477.95;105467;1291;74544;-84
2023/01/13 11:41:27;;;;;;;;;;;;;;;19.96;35.40;101474.09;105442;1291;59916;-84
2023/01/13 11:44:03;;;;;;;;;;;;;;;19.97;35.20;101473.13;105452;1291;62218;-83
2023/01/13 11:46:31;;;;;;;;;;;;;;;19.98;35.30;101472.72;105386;1292;73362;-83
2023/01/13 11:48:57;;;;;;;;;;;;;;;19.99;35.32;101466.27;105482;1291;75093;-84
2023/01/13 11:51:28;;;;;;;;;;;;;;;19.98;35.42;101465.22;105388;1289;61349;-84
2023/01/13 11:54:03;;;;;;;;;;;;;;;19.97;35.28;101467.23;105417;1290;61121;-84
2023/01/13 11:56:34;;;;;;;;;;;;;;;19.96;35.36;101465.33;105364;1292;72581;-85
2023/01/13 11:59:02;;;;;;;;;;;;;;;19.89;35.28;101464.98;105521;1291;75231;-84
2023/01/13 12:01:31;;;;;;;;;;;;;;;19.79;35.28;101466.05;105555;1291;61576;-84
2023/01/13 12:03:59;;;;;;;;;;;;;;;19.71;35.41;101464.52;105596;1290;61023;-85
2023/01/13 12:06:33;;;;;;;;;;;;;;;19.66;35.31;101460.15;105938;1285;72466;-84
2023/01/13 12:09:14;;;;;;;;;;;;;;;19.61;35.31;101461.15;105969;1284;73927;-84
2023/01/13 12:14:40;;;;;;;;;;;;;;;19.57;35.42;101458.14;106045;1285;61324;-85
2023/01/13 12:17:06;;;;;;;;;;;;;;;19.58;35.38;101455.58;105929;1286;73515;-85
2023/01/13 12:19:34;;;;;;;;;;;;;;;19.52;35.33;101450.02;105939;1285;75300;-84
2023/01/13 12:21:59;;;;;;;;;;;;;;;19.45;35.29;101447.58;106086;1285;59782;-85
2023/01/13 12:24:37;;;;;;;;;;;;;;;19.43;35.49;101439.27;106088;1286;61381;-85
2023/01/13 12:27:13;;;;;;;;;;;;;;;19.34;35.30;101439.56;106085;1286;73628;-86
2023/01/13 12:29:39;;;;;;;;;;;;;;;19.32;35.35;101440.91;106068;1285;74462;-82
2023/01/13 12:32:17;;;;;;;;;;;;;;;19.31;35.18;101443.31;106002;1285;61225;-83
2023/01/13 12:34:52;;;;;;;;;;;;;;;19.30;35.25;101440.52;105977;1286;62043;-83
2023/01/13 12:37:20;;;;;;;;;;;;;;;19.35;35.59;101444.67;106079;1285;73672;-83
2023/01/13 12:39:54;;;;;;;;;;;;;;;19.42;35.87;101444.31;106058;1285;75395;-83
2023/01/13 12:45:07;;;;;;;;;;;;;;;19.51;35.73;101449.70;106061;1286;61272;-83
2023/01/13 12:47:47;;;;;;;;;;;;;;;19.53;35.68;101453.90;106047;1285;73549;-83
2023/01/13 12:50:25;;;;;;;;;;;;;;;19.57;35.56;101455.27;106096;1285;74503;-83
2023/01/13 12:52:51;;;;;;;;;;;;;;;19.61;35.64;101458.47;106076;1284;61202;-83
2023/01/13 12:55:23;;;;;;;;;;;;;;;19.65;35.79;101456.47;105876;1286;61275;-83
2023/01/13 12:58:00;;;;;;;;;;;;;;;19.70;35.64;101457.82;105917;1284;72831;-84
2023/01/13 13:00:38;;;;;;;;;;;;;;;19.72;35.73;101460.73;106120;1285;74497;-83
2023/01/13 13:03:10;;;;;;;;;;;;;;;19.74;35.57;101458.29;106753;1285;59215;-84
2023/01/13 13:05:42;;;;;;;;;;;;;;;19.74;35.58;101460.06;106751;1286;59997;-83
2023/01/13 13:08:14;;;;;;;;;;;;;;;19.75;35.50;101462.88;106689;1288;72335;-83
2023/01/13 13:10:42;;;;;;;;;;;;;;;19.74;35.43;101463.66;106595;1285;74493;-83
2023/01/13 13:13:19;;;;;;;;;;;;;;;19.74;35.47;101460.27;106743;1285;59681;-83
2023/01/13 13:15:45;;;;;;;;;;;;;;;19.73;35.38;101462.98;106602;1285;60279;-83
2023/01/13 13:18:18;;;;;;;;;;;;;;;19.74;35.42;101465.06;106028;1286;59912;-83
2023/01/13 13:21:03;;;;;;;;;;;;;;;19.74;35.36;101468.80;106103;1286;75193;-83
2023/01/13 13:23:32;;;;;;;;;;;;;;;19.75;35.22;101473.58;106426;1286;60188;-83
2023/01/13 13:26:19;;;;;;;;;;;;;;;19.76;35.21;101476.22;106140;1286;61237;-83